sensor_id;sensor_type;location;lat;lon;timestamp;pressure;altitude;pressure_sealevel;temperature;humidity
48968;BME280;46511;53.148;8.204;2022-07-29T00:00:47;101987.25;;;16.07;76.79
48968;BME280;46511;53.148;8.204;2022-07-29T00:03:18;101976.88;;;16.01;78.24
48968;BME280;46511;53.148;8.204;2022-07-29T00:05:49;101976.41;;;15.94;77.88
48968;BME280;46511;53.148;8.204;2022-07-29T00:08:22;101977.31;;;15.79;78.61
48968;BME280;46511;53.148;8.204;2022-07-29T00:10:54;101969.63;;;16.03;78.51
48968;BME280;46511;53.148;8.204;2022-07-29T00:13:25;101967.88;;;15.88;79.14
48968;BME280;46511;53.148;8.204;2022-07-29T00:15:56;101966.78;;;15.76;80.10
48968;BME280;46511;53.148;8.204;2022-07-29T00:18:28;101965.06;;;15.75;80.36
48968;BME280;46511;53.148;8.204;2022-07-29T00:20:59;101966.41;;;15.82;79.96
48968;BME280;46511;53.148;8.204;2022-07-29T00:23:30;101967.78;;;15.89;80.11
48968;BME280;46511;53.148;8.204;2022-07-29T00:26:02;101963.66;;;15.84;80.78
48968;BME280;46511;53.148;8.204;2022-07-29T00:28:33;101967.66;;;15.77;80.89
48968;BME280;46511;53.148;8.204;2022-07-29T00:31:04;101963.06;;;15.79;81.40
48968;BME280;46511;53.148;8.204;2022-07-29T00:33:35;101970.63;;;15.56;82.86
48968;BME280;46511;53.148;8.204;2022-07-29T00:36:06;101952.56;;;15.90;81.10
48968;BME280;46511;53.148;8.204;2022-07-29T00:38:38;101950.53;;;15.79;81.57
48968;BME280;46511;53.148;8.204;2022-07-29T00:41:04;101945.16;;;15.79;81.79
48968;BME280;46511;53.148;8.204;2022-07-29T00:43:35;101948.91;;;15.91;81.54
48968;BME280;46511;53.148;8.204;2022-07-29T00:46:06;101952.53;;;15.76;82.43
48968;BME280;46511;53.148;8.204;2022-07-29T00:48:37;101935.81;;;15.86;81.57
48968;BME280;46511;53.148;8.204;2022-07-29T00:51:09;101934.09;;;15.85;81.84
48968;BME280;46511;53.148;8.204;2022-07-29T00:53:41;101929.41;;;15.89;81.76
48968;BME280;46511;53.148;8.204;2022-07-29T00:56:12;101924.59;;;15.80;82.57
48968;BME280;46511;53.148;8.204;2022-07-29T00:58:44;101935.72;;;15.88;82.20
48968;BME280;46511;53.148;8.204;2022-07-29T01:01:16;101931.88;;;15.78;82.77
48968;BME280;46511;53.148;8.204;2022-07-29T01:03:47;101920.56;;;15.73;83.04
48968;BME280;46511;53.148;8.204;2022-07-29T01:06:19;101924.22;;;15.86;82.76
48968;BME280;46511;53.148;8.204;2022-07-29T01:08:50;101918.75;;;15.73;83.16
48968;BME280;46511;53.148;8.204;2022-07-29T01:11:22;101919.44;;;15.77;82.83
48968;BME280;46511;53.148;8.204;2022-07-29T01:13:53;101906.50;;;15.69;83.38
48968;BME280;46511;53.148;8.204;2022-07-29T01:16:30;101907.00;;;15.76;83.10
48968;BME280;46511;53.148;8.204;2022-07-29T01:22:08;101894.47;;;15.46;84.52
48968;BME280;46511;53.148;8.204;2022-07-29T01:30:25;101899.22;;;15.41;85.32
48968;BME280;46511;53.148;8.204;2022-07-29T01:32:59;101898.91;;;15.61;84.02
48968;BME280;46511;53.148;8.204;2022-07-29T01:35:34;101895.63;;;15.56;84.38
48968;BME280;46511;53.148;8.204;2022-07-29T01:38:22;101894.41;;;15.62;83.96
48968;BME280;46511;53.148;8.204;2022-07-29T01:40:51;101886.13;;;15.66;83.93
48968;BME280;46511;53.148;8.204;2022-07-29T01:43:25;101886.69;;;15.71;83.61
48968;BME280;46511;53.148;8.204;2022-07-29T01:46:02;101878.19;;;15.49;84.27
48968;BME280;46511;53.148;8.204;2022-07-29T01:48:31;101875.91;;;15.57;84.56
48968;BME280;46511;53.148;8.204;2022-07-29T01:51:07;101879.38;;;15.59;83.81
48968;BME280;46511;53.148;8.204;2022-07-29T01:56:47;101869.22;;;15.50;84.80
48968;BME280;46511;53.148;8.204;2022-07-29T01:59:20;101862.78;;;15.53;84.16
48968;BME280;46511;53.148;8.204;2022-07-29T02:01:52;101861.41;;;15.61;83.92
48968;BME280;46511;53.148;8.204;2022-07-29T02:04:24;101858.63;;;15.63;83.62
48968;BME280;46511;53.148;8.204;2022-07-29T02:06:58;101859.44;;;15.65;83.62
48968;BME280;46511;53.148;8.204;2022-07-29T02:09:32;101849.91;;;15.59;84.02
48968;BME280;46511;53.148;8.204;2022-07-29T02:12:04;101857.53;;;15.37;84.82
48968;BME280;46511;53.148;8.204;2022-07-29T02:14:38;101851.66;;;15.60;83.61
48968;BME280;46511;53.148;8.204;2022-07-29T02:17:10;101853.34;;;15.47;84.43
48968;BME280;46511;53.148;8.204;2022-07-29T02:19:43;101854.16;;;15.63;83.92
48968;BME280;46511;53.148;8.204;2022-07-29T02:22:16;101847.59;;;15.53;83.75
48968;BME280;46511;53.148;8.204;2022-07-29T02:24:48;101847.91;;;15.63;83.57
48968;BME280;46511;53.148;8.204;2022-07-29T02:27:21;101844.28;;;15.34;84.71
48968;BME280;46511;53.148;8.204;2022-07-29T02:29:53;101842.31;;;15.37;84.93
48968;BME280;46511;53.148;8.204;2022-07-29T02:32:25;101845.56;;;15.42;84.83
48968;BME280;46511;53.148;8.204;2022-07-29T02:34:58;101844.53;;;15.45;84.63
48968;BME280;46511;53.148;8.204;2022-07-29T02:37:30;101849.91;;;15.59;84.02
48968;BME280;46511;53.148;8.204;2022-07-29T02:40:03;101854.50;;;15.57;83.79
48968;BME280;46511;53.148;8.204;2022-07-29T02:42:34;101852.78;;;15.56;83.97
48968;BME280;46511;53.148;8.204;2022-07-29T02:45:07;101859.59;;;15.32;84.66
48968;BME280;46511;53.148;8.204;2022-07-29T02:47:42;101854.44;;;15.29;84.70
48968;BME280;46511;53.148;8.204;2022-07-29T02:50:20;101855.41;;;15.42;84.55
48968;BME280;46511;53.148;8.204;2022-07-29T02:52:53;101841.31;;;15.54;83.84
48968;BME280;46511;53.148;8.204;2022-07-29T02:55:32;101852.78;;;15.56;83.95
48968;BME280;46511;53.148;8.204;2022-07-29T02:58:13;101847.91;;;15.63;83.44
48968;BME280;46511;53.148;8.204;2022-07-29T03:00:46;101842.78;;;15.44;83.99
48968;BME280;46511;53.148;8.204;2022-07-29T03:03:19;101838.78;;;15.51;83.75
48968;BME280;46511;53.148;8.204;2022-07-29T03:05:47;101832.78;;;15.48;84.13
48968;BME280;46511;53.148;8.204;2022-07-29T03:08:18;101833.44;;;15.51;83.89
48968;BME280;46511;53.148;8.204;2022-07-29T03:10:49;101840.19;;;15.42;84.42
48968;BME280;46511;53.148;8.204;2022-07-29T03:13:22;101838.63;;;15.54;84.05
48968;BME280;46511;53.148;8.204;2022-07-29T03:15:53;101836.50;;;15.59;83.60
48968;BME280;46511;53.148;8.204;2022-07-29T03:18:24;101843.97;;;15.54;83.62
48968;BME280;46511;53.148;8.204;2022-07-29T03:20:56;101838.78;;;15.51;83.73
48968;BME280;46511;53.148;8.204;2022-07-29T03:23:28;101840.09;;;15.44;83.85
48968;BME280;46511;53.148;8.204;2022-07-29T03:25:59;101838.78;;;15.51;84.03
48968;BME280;46511;53.148;8.204;2022-07-29T03:28:30;101824.69;;;15.33;84.57
48968;BME280;46511;53.148;8.204;2022-07-29T03:31:02;101827.09;;;15.38;84.54
48968;BME280;46511;53.148;8.204;2022-07-29T03:33:33;101826.09;;;15.55;83.63
48968;BME280;46511;53.148;8.204;2022-07-29T03:36:04;101830.59;;;15.54;83.50
48968;BME280;46511;53.148;8.204;2022-07-29T03:38:35;101828.47;;;15.45;83.86
48968;BME280;46511;53.148;8.204;2022-07-29T03:41:09;101827.56;;;15.60;83.25
48968;BME280;46511;53.148;8.204;2022-07-29T03:43:41;101828.56;;;15.58;83.10
48968;BME280;46511;53.148;8.204;2022-07-29T03:46:13;101826.00;;;15.56;83.37
48968;BME280;46511;53.148;8.204;2022-07-29T03:48:47;101837.31;;;15.61;83.09
48968;BME280;46511;53.148;8.204;2022-07-29T03:51:19;101827.91;;;15.54;83.70
48968;BME280;46511;53.148;8.204;2022-07-29T03:53:51;101831.50;;;15.53;83.61
48968;BME280;46511;53.148;8.204;2022-07-29T03:56:22;101827.28;;;15.35;84.03
48968;BME280;46511;53.148;8.204;2022-07-29T03:58:54;101825.69;;;15.47;84.06
48968;BME280;46511;53.148;8.204;2022-07-29T04:01:25;101828.06;;;15.51;83.70
48968;BME280;46511;53.148;8.204;2022-07-29T04:03:59;101822.19;;;15.60;83.67
48968;BME280;46511;53.148;8.204;2022-07-29T04:06:43;101824.78;;;15.32;84.75
48968;BME280;46511;53.148;8.204;2022-07-29T04:09:15;101826.16;;;15.39;84.60
48968;BME280;46511;53.148;8.204;2022-07-29T04:11:46;101822.56;;;15.54;83.60
48968;BME280;46511;53.148;8.204;2022-07-29T04:14:18;101823.59;;;15.52;83.97
48968;BME280;46511;53.148;8.204;2022-07-29T04:16:49;101825.31;;;15.53;83.83
48968;BME280;46511;53.148;8.204;2022-07-29T04:19:20;101812.50;;;15.58;83.35
48968;BME280;46511;53.148;8.204;2022-07-29T04:21:52;101819.28;;;15.49;83.73
48968;BME280;46511;53.148;8.204;2022-07-29T04:24:23;101813.91;;;15.65;83.57
48968;BME280;46511;53.148;8.204;2022-07-29T04:26:54;101817.88;;;15.58;83.23
48968;BME280;46511;53.148;8.204;2022-07-29T04:29:25;101816.56;;;15.65;83.19
48968;BME280;46511;53.148;8.204;2022-07-29T04:31:57;101821.50;;;15.57;83.18
48968;BME280;46511;53.148;8.204;2022-07-29T04:34:28;101814.66;;;15.81;82.09
48968;BME280;46511;53.148;8.204;2022-07-29T04:36:59;101816.38;;;15.82;81.71
48968;BME280;46511;53.148;8.204;2022-07-29T04:39:30;101813.88;;;15.79;81.91
48968;BME280;46511;53.148;8.204;2022-07-29T04:42:01;101808.72;;;15.90;81.65
48968;BME280;46511;53.148;8.204;2022-07-29T04:44:33;101818.78;;;15.87;81.68
48968;BME280;46511;53.148;8.204;2022-07-29T04:47:07;101806.16;;;15.75;82.47
48968;BME280;46511;53.148;8.204;2022-07-29T04:49:38;101809.28;;;15.81;82.28
48968;BME280;46511;53.148;8.204;2022-07-29T04:52:09;101814.16;;;15.89;81.34
48968;BME280;46511;53.148;8.204;2022-07-29T04:54:41;101816.28;;;15.98;80.91
48968;BME280;46511;53.148;8.204;2022-07-29T04:57:12;101808.81;;;16.03;80.95
48968;BME280;46511;53.148;8.204;2022-07-29T04:59:43;101810.91;;;15.98;81.56
48968;BME280;46511;53.148;8.204;2022-07-29T05:02:14;101812.25;;;15.77;82.42
48968;BME280;46511;53.148;8.204;2022-07-29T05:04:46;101811.66;;;16.00;81.77
48968;BME280;46511;53.148;8.204;2022-07-29T05:07:17;101810.91;;;16.12;80.73
48968;BME280;46511;53.148;8.204;2022-07-29T05:09:48;101812.91;;;16.09;80.59
48968;BME280;46511;53.148;8.204;2022-07-29T05:12:19;101818.97;;;16.12;80.94
48968;BME280;46511;53.148;8.204;2022-07-29T05:14:51;101809.47;;;16.48;79.42
48968;BME280;46511;53.148;8.204;2022-07-29T05:17:22;101801.25;;;16.51;79.34
48968;BME280;46511;53.148;8.204;2022-07-29T05:19:49;101808.63;;;16.20;80.87
48968;BME280;46511;53.148;8.204;2022-07-29T05:22:22;101810.50;;;16.33;80.74
48968;BME280;46511;53.148;8.204;2022-07-29T05:24:53;101802.63;;;16.44;79.71
48968;BME280;46511;53.148;8.204;2022-07-29T05:27:24;101806.53;;;16.11;80.95
48968;BME280;46511;53.148;8.204;2022-07-29T05:29:56;101801.00;;;16.41;79.97
48968;BME280;46511;53.148;8.204;2022-07-29T05:32:27;101806.63;;;16.51;79.72
48968;BME280;46511;53.148;8.204;2022-07-29T05:34:58;101811.41;;;16.46;79.60
48968;BME280;46511;53.148;8.204;2022-07-29T05:37:29;101823.16;;;16.99;78.21
48968;BME280;46511;53.148;8.204;2022-07-29T05:40:01;101817.50;;;17.16;77.04
48968;BME280;46511;53.148;8.204;2022-07-29T05:42:32;101816.88;;;17.25;77.15
48968;BME280;46511;53.148;8.204;2022-07-29T05:45:03;101818.38;;;17.29;77.37
48968;BME280;46511;53.148;8.204;2022-07-29T05:47:36;101804.53;;;17.61;76.27
48968;BME280;46511;53.148;8.204;2022-07-29T05:50:07;101800.34;;;17.57;75.84
48968;BME280;46511;53.148;8.204;2022-07-29T05:52:38;101802.94;;;17.58;75.50
48968;BME280;46511;53.148;8.204;2022-07-29T05:55:10;101809.09;;;17.73;75.15
48968;BME280;46511;53.148;8.204;2022-07-29T05:57:42;101812.81;;;18.09;73.85
48968;BME280;46511;53.148;8.204;2022-07-29T06:00:14;101814.72;;;18.32;72.94
48968;BME280;46511;53.148;8.204;2022-07-29T06:02:45;101810.22;;;18.20;72.89
48968;BME280;46511;53.148;8.204;2022-07-29T06:05:17;101817.81;;;18.63;71.35
48968;BME280;46511;53.148;8.204;2022-07-29T06:07:48;101817.63;;;18.66;71.22
48968;BME280;46511;53.148;8.204;2022-07-29T06:10:19;101809.63;;;18.77;70.50
48968;BME280;46511;53.148;8.204;2022-07-29T06:12:51;101808.78;;;19.11;70.59
48968;BME280;46511;53.148;8.204;2022-07-29T06:15:22;101801.69;;;19.10;70.04
48968;BME280;46511;53.148;8.204;2022-07-29T06:17:53;101804.50;;;18.85;70.25
48968;BME280;46511;53.148;8.204;2022-07-29T06:20:24;101805.31;;;18.74;71.55
48968;BME280;46511;53.148;8.204;2022-07-29T06:22:56;101817.16;;;18.48;71.24
48968;BME280;46511;53.148;8.204;2022-07-29T06:25:27;101804.94;;;18.68;70.95
48968;BME280;46511;53.148;8.204;2022-07-29T06:28:03;101811.72;;;18.24;72.23
48968;BME280;46511;53.148;8.204;2022-07-29T06:30:34;101814.06;;;18.28;73.03
48968;BME280;46511;53.148;8.204;2022-07-29T06:33:05;101804.94;;;18.68;71.56
48968;BME280;46511;53.148;8.204;2022-07-29T06:35:37;101799.25;;;18.83;71.28
48968;BME280;46511;53.148;8.204;2022-07-29T06:38:10;101806.22;;;18.62;71.67
48968;BME280;46511;53.148;8.204;2022-07-29T06:40:42;101799.69;;;19.01;70.83
48968;BME280;46511;53.148;8.204;2022-07-29T06:43:37;101808.25;;;18.95;70.17
48968;BME280;46511;53.148;8.204;2022-07-29T06:46:12;101814.88;;;19.02;70.14
48968;BME280;46511;53.148;8.204;2022-07-29T06:48:44;101819.22;;;18.92;71.05
48968;BME280;46511;53.148;8.204;2022-07-29T06:51:15;101819.03;;;18.95;70.92
48968;BME280;46511;53.148;8.204;2022-07-29T06:53:47;101817.13;;;19.20;70.98
48968;BME280;46511;53.148;8.204;2022-07-29T06:56:18;101820.16;;;19.50;69.26
48968;BME280;46511;53.148;8.204;2022-07-29T06:58:49;101810.16;;;20.08;68.17
48968;BME280;46511;53.148;8.204;2022-07-29T07:01:21;101807.13;;;20.78;64.45
48968;BME280;46511;53.148;8.204;2022-07-29T07:03:52;101805.50;;;21.61;61.73
48968;BME280;46511;53.148;8.204;2022-07-29T07:06:23;101819.59;;;20.91;63.16
48968;BME280;46511;53.148;8.204;2022-07-29T07:08:54;101813.31;;;21.33;61.53
48968;BME280;46511;53.148;8.204;2022-07-29T07:11:26;101814.50;;;22.32;59.18
48968;BME280;46511;53.148;8.204;2022-07-29T07:13:57;101807.09;;;21.43;59.28
48968;BME280;46511;53.148;8.204;2022-07-29T07:16:28;101813.69;;;20.97;60.65
48968;BME280;46511;53.148;8.204;2022-07-29T07:19:00;101802.72;;;21.72;59.49
48968;BME280;46511;53.148;8.204;2022-07-29T07:21:32;101805.66;;;22.20;57.06
48968;BME280;46511;53.148;8.204;2022-07-29T07:24:03;101796.91;;;22.57;56.65
48968;BME280;46511;53.148;8.204;2022-07-29T07:26:35;101802.91;;;23.28;54.97
48968;BME280;46511;53.148;8.204;2022-07-29T07:29:06;101808.63;;;23.35;52.15
48968;BME280;46511;53.148;8.204;2022-07-29T07:31:37;101805.03;;;23.44;52.27
48968;BME280;46511;53.148;8.204;2022-07-29T07:34:08;101798.63;;;23.45;53.23
48968;BME280;46511;53.148;8.204;2022-07-29T07:36:40;101802.69;;;25.06;46.45
48968;BME280;46511;53.148;8.204;2022-07-29T07:39:11;101809.63;;;27.46;41.48
48968;BME280;46511;53.148;8.204;2022-07-29T07:41:42;101805.41;;;28.07;39.91
48968;BME280;46511;53.148;8.204;2022-07-29T07:44:13;101805.63;;;30.18;34.24
48968;BME280;46511;53.148;8.204;2022-07-29T07:46:45;101802.09;;;30.75;32.58
48968;BME280;46511;53.148;8.204;2022-07-29T07:49:16;101804.69;;;31.75;30.91
48968;BME280;46511;53.148;8.204;2022-07-29T07:51:47;101801.44;;;30.37;33.18
48968;BME280;46511;53.148;8.204;2022-07-29T07:54:18;101809.91;;;31.42;29.57
48968;BME280;46511;53.148;8.204;2022-07-29T07:56:49;101804.31;;;30.14;33.21
48968;BME280;46511;53.148;8.204;2022-07-29T07:59:21;101802.53;;;32.05;31.62
48968;BME280;46511;53.148;8.204;2022-07-29T08:01:52;101809.94;;;30.78;31.30
48968;BME280;46511;53.148;8.204;2022-07-29T08:04:23;101800.75;;;31.57;31.16
48968;BME280;46511;53.148;8.204;2022-07-29T08:06:56;101809.22;;;31.90;30.09
48968;BME280;46511;53.148;8.204;2022-07-29T08:09:28;101809.75;;;29.99;33.74
48968;BME280;46511;53.148;8.204;2022-07-29T08:11:59;101807.75;;;30.37;31.89
48968;BME280;46511;53.148;8.204;2022-07-29T08:14:33;101801.25;;;29.65;33.58
48968;BME280;46511;53.148;8.204;2022-07-29T08:17:04;101802.44;;;30.14;32.95
48968;BME280;46511;53.148;8.204;2022-07-29T08:19:35;101804.72;;;31.05;32.12
48968;BME280;46511;53.148;8.204;2022-07-29T08:22:08;101795.47;;;32.99;28.09
48968;BME280;46511;53.148;8.204;2022-07-29T08:24:39;101796.19;;;29.39;32.54
48968;BME280;46511;53.148;8.204;2022-07-29T08:27:13;101794.88;;;30.53;32.72
48968;BME280;46511;53.148;8.204;2022-07-29T08:29:45;101784.88;;;32.89;30.59
48968;BME280;46511;53.148;8.204;2022-07-29T08:32:16;101787.59;;;33.68;28.31
48968;BME280;46511;53.148;8.204;2022-07-29T08:34:47;101791.22;;;31.87;29.34
48968;BME280;46511;53.148;8.204;2022-07-29T08:37:19;101789.84;;;30.71;30.86
48968;BME280;46511;53.148;8.204;2022-07-29T08:39:50;101804.50;;;30.49;31.59
48968;BME280;46511;53.148;8.204;2022-07-29T08:42:21;101799.06;;;32.99;30.72
48968;BME280;46511;53.148;8.204;2022-07-29T08:44:53;101800.69;;;33.99;27.13
48968;BME280;46511;53.148;8.204;2022-07-29T08:47:25;101794.00;;;35.53;25.51
48968;BME280;46511;53.148;8.204;2022-07-29T08:49:57;101797.78;;;33.61;26.90
48968;BME280;46511;53.148;8.204;2022-07-29T08:52:28;101798.88;;;30.35;29.87
48968;BME280;46511;53.148;8.204;2022-07-29T08:55:04;101789.09;;;31.05;30.66
48968;BME280;46511;53.148;8.204;2022-07-29T08:57:32;101795.25;;;30.50;32.14
48968;BME280;46511;53.148;8.204;2022-07-29T09:00:04;101802.56;;;28.31;34.55
48968;BME280;46511;53.148;8.204;2022-07-29T09:02:36;101797.47;;;27.56;36.89
48968;BME280;46511;53.148;8.204;2022-07-29T09:05:09;101787.53;;;27.96;36.26
48968;BME280;46511;53.148;8.204;2022-07-29T09:07:41;101785.97;;;30.51;33.95
48968;BME280;46511;53.148;8.204;2022-07-29T09:10:14;101793.19;;;30.52;33.19
48968;BME280;46511;53.148;8.204;2022-07-29T09:12:45;101788.97;;;29.75;34.23
48968;BME280;46511;53.148;8.204;2022-07-29T09:15:17;101788.59;;;29.93;33.61
48968;BME280;46511;53.148;8.204;2022-07-29T09:17:48;101780.38;;;29.64;34.27
48968;BME280;46511;53.148;8.204;2022-07-29T09:20:20;101778.16;;;28.92;35.79
48968;BME280;46511;53.148;8.204;2022-07-29T09:22:53;101774.59;;;27.82;37.20
48968;BME280;46511;53.148;8.204;2022-07-29T09:25:32;101776.72;;;29.34;36.48
48968;BME280;46511;53.148;8.204;2022-07-29T09:33:23;101773.97;;;29.71;33.24
48968;BME280;46511;53.148;8.204;2022-07-29T09:36:04;101770.97;;;29.28;33.75
48968;BME280;46511;53.148;8.204;2022-07-29T09:38:36;101769.78;;;30.56;34.02
48968;BME280;46511;53.148;8.204;2022-07-29T09:41:08;101755.84;;;32.86;29.62
48968;BME280;46511;53.148;8.204;2022-07-29T09:43:41;101768.19;;;31.88;29.94
48968;BME280;46511;53.148;8.204;2022-07-29T09:46:24;101769.22;;;31.03;31.82
48968;BME280;46511;53.148;8.204;2022-07-29T09:49:11;101769.78;;;30.70;32.03
48968;BME280;46511;53.148;8.204;2022-07-29T09:51:43;101769.44;;;29.26;33.83
48968;BME280;46511;53.148;8.204;2022-07-29T09:54:21;101767.41;;;28.59;36.25
48968;BME280;46511;53.148;8.204;2022-07-29T09:56:54;101763.75;;;29.65;34.90
48968;BME280;46511;53.148;8.204;2022-07-29T09:59:25;101762.91;;;29.12;34.27
48968;BME280;46511;53.148;8.204;2022-07-29T10:01:57;101758.03;;;29.22;33.33
48968;BME280;46511;53.148;8.204;2022-07-29T10:04:41;101749.75;;;30.19;31.43
48968;BME280;46511;53.148;8.204;2022-07-29T10:07:12;101745.91;;;32.99;28.22
48968;BME280;46511;53.148;8.204;2022-07-29T10:09:53;101752.25;;;33.06;27.52
48968;BME280;46511;53.148;8.204;2022-07-29T10:12:25;101746.94;;;33.57;26.17
48968;BME280;46511;53.148;8.204;2022-07-29T10:14:56;101746.19;;;34.46;25.85
48968;BME280;46511;53.148;8.204;2022-07-29T10:17:28;101749.66;;;36.51;22.67
48968;BME280;46511;53.148;8.204;2022-07-29T10:19:59;101743.13;;;35.61;23.57
48968;BME280;46511;53.148;8.204;2022-07-29T10:22:30;101744.56;;;35.82;23.70
48968;BME280;46511;53.148;8.204;2022-07-29T10:25:02;101737.19;;;35.14;23.90
48968;BME280;46511;53.148;8.204;2022-07-29T10:27:34;101750.28;;;32.53;26.92
48968;BME280;46511;53.148;8.204;2022-07-29T10:30:05;101740.06;;;33.86;25.69
48968;BME280;46511;53.148;8.204;2022-07-29T10:32:50;101731.81;;;33.79;26.07
48968;BME280;46511;53.148;8.204;2022-07-29T10:41:23;101744.81;;;30.29;30.30
48968;BME280;46511;53.148;8.204;2022-07-29T10:44:00;101739.78;;;29.97;30.14
48968;BME280;46511;53.148;8.204;2022-07-29T10:46:38;101740.59;;;31.68;27.99
48968;BME280;46511;53.148;8.204;2022-07-29T10:54:39;101737.09;;;30.54;29.90
48968;BME280;46511;53.148;8.204;2022-07-29T10:57:18;101740.72;;;30.04;30.40
48968;BME280;46511;53.148;8.204;2022-07-29T11:05:06;101729.19;;;30.87;29.77
48968;BME280;46511;53.148;8.204;2022-07-29T11:07:40;101717.63;;;31.82;29.98
48968;BME280;46511;53.148;8.204;2022-07-29T11:10:30;101726.38;;;31.65;29.58
48968;BME280;46511;53.148;8.204;2022-07-29T11:13:01;101724.63;;;31.50;28.93
48968;BME280;46511;53.148;8.204;2022-07-29T11:15:52;101718.22;;;30.87;29.43
48968;BME280;46511;53.148;8.204;2022-07-29T11:18:23;101724.34;;;31.11;30.26
48968;BME280;46511;53.148;8.204;2022-07-29T11:20:54;101719.00;;;33.40;26.25
48968;BME280;46511;53.148;8.204;2022-07-29T11:23:27;101719.53;;;35.40;25.30
48968;BME280;46511;53.148;8.204;2022-07-29T11:28:54;101716.94;;;33.94;25.20
48968;BME280;46511;53.148;8.204;2022-07-29T11:39:37;101722.44;;;31.74;27.27
48968;BME280;46511;53.148;8.204;2022-07-29T11:47:24;101734.28;;;29.38;30.79
48968;BME280;46511;53.148;8.204;2022-07-29T11:49:57;101724.47;;;28.45;31.99
48968;BME280;46511;53.148;8.204;2022-07-29T11:52:32;101732.75;;;28.29;32.76
48968;BME280;46511;53.148;8.204;2022-07-29T11:55:04;101727.66;;;29.32;32.14
48968;BME280;46511;53.148;8.204;2022-07-29T11:57:36;101725.59;;;28.73;33.71
48968;BME280;46511;53.148;8.204;2022-07-29T12:00:07;101722.06;;;27.72;34.15
48968;BME280;46511;53.148;8.204;2022-07-29T12:02:40;101727.66;;;27.86;34.47
48968;BME280;46511;53.148;8.204;2022-07-29T12:05:12;101721.25;;;28.02;33.77
48968;BME280;46511;53.148;8.204;2022-07-29T12:07:44;101722.28;;;28.63;34.18
48968;BME280;46511;53.148;8.204;2022-07-29T12:10:10;101721.56;;;28.92;33.36
48968;BME280;46511;53.148;8.204;2022-07-29T12:12:41;101723.69;;;29.35;34.08
48968;BME280;46511;53.148;8.204;2022-07-29T12:15:17;101726.91;;;28.32;34.69
48968;BME280;46511;53.148;8.204;2022-07-29T12:17:49;101725.63;;;28.11;35.31
48968;BME280;46511;53.148;8.204;2022-07-29T12:20:28;101722.09;;;28.03;37.27
48968;BME280;46511;53.148;8.204;2022-07-29T12:22:54;101720.69;;;28.69;36.37
48968;BME280;46511;53.148;8.204;2022-07-29T12:25:26;101716.84;;;27.38;36.47
48968;BME280;46511;53.148;8.204;2022-07-29T12:28:02;101714.66;;;27.33;36.29
48968;BME280;46511;53.148;8.204;2022-07-29T12:30:35;101718.06;;;27.35;36.69
48968;BME280;46511;53.148;8.204;2022-07-29T12:33:10;101710.31;;;28.02;36.74
48968;BME280;46511;53.148;8.204;2022-07-29T12:35:42;101706.16;;;28.68;34.78
48968;BME280;46511;53.148;8.204;2022-07-29T12:38:15;101710.41;;;28.71;35.10
48968;BME280;46511;53.148;8.204;2022-07-29T12:40:47;101715.59;;;29.85;33.20
48968;BME280;46511;53.148;8.204;2022-07-29T12:43:22;101709.34;;;29.92;33.05
48968;BME280;46511;53.148;8.204;2022-07-29T12:45:55;101705.84;;;28.86;33.34
48968;BME280;46511;53.148;8.204;2022-07-29T12:48:36;101711.16;;;29.70;33.98
48968;BME280;46511;53.148;8.204;2022-07-29T12:51:08;101699.25;;;28.81;34.82
48968;BME280;46511;53.148;8.204;2022-07-29T12:53:40;101701.69;;;29.28;34.09
48968;BME280;46511;53.148;8.204;2022-07-29T12:56:17;101700.91;;;29.05;34.30
48968;BME280;46511;53.148;8.204;2022-07-29T12:58:48;101699.97;;;28.52;34.72
48968;BME280;46511;53.148;8.204;2022-07-29T13:01:20;101701.19;;;28.95;35.58
48968;BME280;46511;53.148;8.204;2022-07-29T13:03:56;101697.50;;;28.80;34.76
48968;BME280;46511;53.148;8.204;2022-07-29T13:06:32;101692.91;;;28.57;34.71
48968;BME280;46511;53.148;8.204;2022-07-29T13:14:13;101695.88;;;28.25;33.63
48968;BME280;46511;53.148;8.204;2022-07-29T13:22:10;101699.91;;;27.67;34.73
48968;BME280;46511;53.148;8.204;2022-07-29T13:24:45;101699.63;;;27.93;34.59
48968;BME280;46511;53.148;8.204;2022-07-29T13:27:17;101698.25;;;28.73;33.33
48968;BME280;46511;53.148;8.204;2022-07-29T13:29:48;101703.69;;;28.28;33.21
48968;BME280;46511;53.148;8.204;2022-07-29T13:32:22;101696.88;;;28.55;33.01
48968;BME280;46511;53.148;8.204;2022-07-29T13:34:54;101702.31;;;27.70;33.29
48968;BME280;46511;53.148;8.204;2022-07-29T13:37:26;101698.97;;;28.13;34.23
48968;BME280;46511;53.148;8.204;2022-07-29T13:40:00;101692.34;;;28.16;33.14
48968;BME280;46511;53.148;8.204;2022-07-29T13:42:33;101697.00;;;28.07;34.35
48968;BME280;46511;53.148;8.204;2022-07-29T13:45:05;101704.19;;;27.69;34.11
48968;BME280;46511;53.148;8.204;2022-07-29T13:47:37;101698.53;;;27.63;33.72
48968;BME280;46511;53.148;8.204;2022-07-29T13:50:09;101697.66;;;27.78;33.72
48968;BME280;46511;53.148;8.204;2022-07-29T13:52:41;101702.28;;;27.61;34.74
48968;BME280;46511;53.148;8.204;2022-07-29T13:55:12;101695.34;;;28.29;33.12
48968;BME280;46511;53.148;8.204;2022-07-29T13:57:43;101701.78;;;28.59;33.43
48968;BME280;46511;53.148;8.204;2022-07-29T14:00:14;101699.06;;;28.59;32.87
48968;BME280;46511;53.148;8.204;2022-07-29T14:02:46;101695.44;;;28.44;34.11
48968;BME280;46511;53.148;8.204;2022-07-29T14:05:18;101694.97;;;28.78;33.35
48968;BME280;46511;53.148;8.204;2022-07-29T14:07:49;101698.75;;;28.54;32.54
48968;BME280;46511;53.148;8.204;2022-07-29T14:10:20;101698.22;;;28.05;33.67
48968;BME280;46511;53.148;8.204;2022-07-29T14:12:51;101696.75;;;28.48;33.53
48968;BME280;46511;53.148;8.204;2022-07-29T14:15:23;101698.59;;;28.70;33.46
48968;BME280;46511;53.148;8.204;2022-07-29T14:17:54;101700.47;;;28.55;33.59